sensor_id;sensor_type;location;lat;lon;timestamp;P1;durP1;ratioP1;P2;durP2;ratioP2
22080;SDS011;11207;59.512;18.050;2022-10-31T00:03:46;8.87;;;6.17;;
22080;SDS011;11207;59.512;18.050;2022-10-31T00:06:12;10.30;;;6.70;;
22080;SDS011;11207;59.512;18.050;2022-10-31T00:08:38;9.13;;;6.37;;
22080;SDS011;11207;59.512;18.050;2022-10-31T00:11:07;8.07;;;6.00;;
22080;SDS011;11207;59.512;18.050;2022-10-31T00:13:33;10.23;;;6.23;;
22080;SDS011;11207;59.512;18.050;2022-10-31T00:15:59;5.83;;;4.90;;
22080;SDS011;11207;59.512;18.050;2022-10-31T00:18:25;6.87;;;5.33;;
22080;SDS011;11207;59.512;18.050;2022-10-31T00:20:58;7.43;;;5.20;;
22080;SDS011;11207;59.512;18.050;2022-10-31T00:23:27;8.37;;;5.37;;
22080;SDS011;11207;59.512;18.050;2022-10-31T00:25:53;6.83;;;5.10;;
22080;SDS011;11207;59.512;18.050;2022-10-31T00:28:19;8.93;;;6.00;;
22080;SDS011;11207;59.512;18.050;2022-10-31T00:30:44;9.13;;;6.00;;
22080;SDS011;11207;59.512;18.050;2022-10-31T00:33:10;8.73;;;5.60;;
22080;SDS011;11207;59.512;18.050;2022-10-31T00:35:35;8.37;;;5.50;;
22080;SDS011;11207;59.512;18.050;2022-10-31T00:38:01;5.83;;;5.27;;
22080;SDS011;11207;59.512;18.050;2022-10-31T00:40:27;5.27;;;4.73;;
22080;SDS011;11207;59.512;18.050;2022-10-31T00:42:52;5.47;;;4.63;;
22080;SDS011;11207;59.512;18.050;2022-10-31T00:45:18;5.10;;;4.57;;
22080;SDS011;11207;59.512;18.050;2022-10-31T00:47:43;5.93;;;4.73;;
22080;SDS011;11207;59.512;18.050;2022-10-31T00:50:09;5.97;;;4.60;;
22080;SDS011;11207;59.512;18.050;2022-10-31T00:52:35;4.93;;;4.53;;
22080;SDS011;11207;59.512;18.050;2022-10-31T00:55:00;8.37;;;5.57;;
22080;SDS011;11207;59.512;18.050;2022-10-31T00:57:26;8.90;;;5.07;;
22080;SDS011;11207;59.512;18.050;2022-10-31T00:59:52;6.77;;;5.63;;
22080;SDS011;11207;59.512;18.050;2022-10-31T01:02:17;6.77;;;5.30;;
22080;SDS011;11207;59.512;18.050;2022-10-31T01:04:46;7.83;;;6.27;;
22080;SDS011;11207;59.512;18.050;2022-10-31T01:07:11;6.23;;;5.13;;
22080;SDS011;11207;59.512;18.050;2022-10-31T01:09:38;8.47;;;5.73;;
22080;SDS011;11207;59.512;18.050;2022-10-31T01:12:04;7.80;;;6.07;;
22080;SDS011;11207;59.512;18.050;2022-10-31T01:14:30;9.73;;;6.40;;
22080;SDS011;11207;59.512;18.050;2022-10-31T01:16:56;8.33;;;5.63;;
22080;SDS011;11207;59.512;18.050;2022-10-31T01:19:21;6.67;;;5.97;;
22080;SDS011;11207;59.512;18.050;2022-10-31T01:21:47;7.87;;;5.97;;
22080;SDS011;11207;59.512;18.050;2022-10-31T01:24:13;9.53;;;6.57;;
22080;SDS011;11207;59.512;18.050;2022-10-31T01:26:38;9.20;;;5.93;;
22080;SDS011;11207;59.512;18.050;2022-10-31T01:29:05;9.90;;;5.70;;
22080;SDS011;11207;59.512;18.050;2022-10-31T01:31:33;8.07;;;5.67;;
22080;SDS011;11207;59.512;18.050;2022-10-31T01:34:00;6.50;;;5.50;;
22080;SDS011;11207;59.512;18.050;2022-10-31T01:36:28;7.37;;;5.53;;
22080;SDS011;11207;59.512;18.050;2022-10-31T01:38:59;8.17;;;5.97;;
22080;SDS011;11207;59.512;18.050;2022-10-31T01:41:27;6.10;;;5.03;;
22080;SDS011;11207;59.512;18.050;2022-10-31T01:46:39;9.27;;;5.77;;
22080;SDS011;11207;59.512;18.050;2022-10-31T01:49:10;5.87;;;5.27;;
22080;SDS011;11207;59.512;18.050;2022-10-31T01:51:47;6.83;;;4.97;;
22080;SDS011;11207;59.512;18.050;2022-10-31T01:54:17;5.87;;;5.20;;
22080;SDS011;11207;59.512;18.050;2022-10-31T01:56:46;8.30;;;5.10;;
22080;SDS011;11207;59.512;18.050;2022-10-31T01:59:18;6.07;;;5.47;;
22080;SDS011;11207;59.512;18.050;2022-10-31T02:01:46;5.87;;;5.17;;
22080;SDS011;11207;59.512;18.050;2022-10-31T02:04:13;6.17;;;5.20;;
22080;SDS011;11207;59.512;18.050;2022-10-31T02:07:02;6.20;;;5.40;;
22080;SDS011;11207;59.512;18.050;2022-10-31T02:09:31;6.40;;;4.67;;
22080;SDS011;11207;59.512;18.050;2022-10-31T02:11:59;7.37;;;5.23;;
22080;SDS011;11207;59.512;18.050;2022-10-31T02:14:26;5.20;;;4.70;;
22080;SDS011;11207;59.512;18.050;2022-10-31T02:16:54;10.90;;;5.67;;
22080;SDS011;11207;59.512;18.050;2022-10-31T02:25:13;8.17;;;5.27;;
22080;SDS011;11207;59.512;18.050;2022-10-31T02:33:53;6.93;;;5.50;;
22080;SDS011;11207;59.512;18.050;2022-10-31T02:38:59;9.37;;;5.93;;
22080;SDS011;11207;59.512;18.050;2022-10-31T02:44:09;7.13;;;5.57;;
22080;SDS011;11207;59.512;18.050;2022-10-31T02:46:50;10.83;;;5.90;;
22080;SDS011;11207;59.512;18.050;2022-10-31T02:52:22;7.43;;;6.00;;
22080;SDS011;11207;59.512;18.050;2022-10-31T02:54:50;7.03;;;4.97;;
22080;SDS011;11207;59.512;18.050;2022-10-31T02:57:17;6.23;;;5.33;;
22080;SDS011;11207;59.512;18.050;2022-10-31T02:59:48;9.30;;;5.80;;
22080;SDS011;11207;59.512;18.050;2022-10-31T03:08:06;10.07;;;6.40;;
22080;SDS011;11207;59.512;18.050;2022-10-31T03:16:14;10.10;;;6.50;;
22080;SDS011;11207;59.512;18.050;2022-10-31T03:18:51;7.57;;;5.77;;
22080;SDS011;11207;59.512;18.050;2022-10-31T03:21:22;12.23;;;6.07;;
22080;SDS011;11207;59.512;18.050;2022-10-31T03:23:53;7.83;;;5.97;;
22080;SDS011;11207;59.512;18.050;2022-10-31T03:26:20;7.80;;;5.43;;
22080;SDS011;11207;59.512;18.050;2022-10-31T03:28:50;8.33;;;5.67;;
22080;SDS011;11207;59.512;18.050;2022-10-31T03:31:19;9.03;;;6.23;;
22080;SDS011;11207;59.512;18.050;2022-10-31T03:33:50;9.20;;;6.67;;
22080;SDS011;11207;59.512;18.050;2022-10-31T03:36:16;10.40;;;6.77;;
22080;SDS011;11207;59.512;18.050;2022-10-31T03:38:44;9.30;;;6.17;;
22080;SDS011;11207;59.512;18.050;2022-10-31T03:41:13;8.37;;;6.03;;
22080;SDS011;11207;59.512;18.050;2022-10-31T03:43:48;8.53;;;6.10;;
22080;SDS011;11207;59.512;18.050;2022-10-31T03:46:20;7.67;;;5.97;;
22080;SDS011;11207;59.512;18.050;2022-10-31T03:48:46;8.00;;;6.40;;
22080;SDS011;11207;59.512;18.050;2022-10-31T03:51:59;9.93;;;6.27;;
22080;SDS011;11207;59.512;18.050;2022-10-31T03:54:13;8.03;;;6.40;;
22080;SDS011;11207;59.512;18.050;2022-10-31T03:57:11;6.77;;;5.37;;
22080;SDS011;11207;59.512;18.050;2022-10-31T03:59:48;7.70;;;6.17;;
22080;SDS011;11207;59.512;18.050;2022-10-31T04:02:18;9.90;;;6.43;;
22080;SDS011;11207;59.512;18.050;2022-10-31T04:04:47;10.00;;;5.97;;
22080;SDS011;11207;59.512;18.050;2022-10-31T04:07:15;8.83;;;6.27;;
22080;SDS011;11207;59.512;18.050;2022-10-31T04:09:43;12.13;;;6.23;;
22080;SDS011;11207;59.512;18.050;2022-10-31T04:12:10;8.50;;;6.20;;
22080;SDS011;11207;59.512;18.050;2022-10-31T04:14:40;9.03;;;6.07;;
22080;SDS011;11207;59.512;18.050;2022-10-31T04:17:08;7.27;;;5.57;;
22080;SDS011;11207;59.512;18.050;2022-10-31T04:19:37;9.80;;;5.83;;
22080;SDS011;11207;59.512;18.050;2022-10-31T04:22:02;8.87;;;6.40;;
22080;SDS011;11207;59.512;18.050;2022-10-31T04:24:28;10.00;;;6.00;;
22080;SDS011;11207;59.512;18.050;2022-10-31T04:26:54;11.57;;;6.20;;
22080;SDS011;11207;59.512;18.050;2022-10-31T04:29:19;8.07;;;5.50;;
22080;SDS011;11207;59.512;18.050;2022-10-31T04:31:45;9.83;;;5.93;;
22080;SDS011;11207;59.512;18.050;2022-10-31T04:34:11;9.60;;;5.27;;
22080;SDS011;11207;59.512;18.050;2022-10-31T04:36:37;9.77;;;5.83;;
22080;SDS011;11207;59.512;18.050;2022-10-31T04:39:02;8.07;;;5.73;;
22080;SDS011;11207;59.512;18.050;2022-10-31T04:41:28;9.27;;;6.10;;
22080;SDS011;11207;59.512;18.050;2022-10-31T04:43:53;6.57;;;5.53;;
22080;SDS011;11207;59.512;18.050;2022-10-31T04:46:19;9.87;;;6.43;;
22080;SDS011;11207;59.512;18.050;2022-10-31T04:48:45;10.13;;;6.37;;
22080;SDS011;11207;59.512;18.050;2022-10-31T04:51:10;15.53;;;7.57;;
22080;SDS011;11207;59.512;18.050;2022-10-31T04:53:37;10.17;;;5.80;;
22080;SDS011;11207;59.512;18.050;2022-10-31T04:56:03;11.23;;;5.87;;
22080;SDS011;11207;59.512;18.050;2022-10-31T04:58:29;9.20;;;6.03;;
22080;SDS011;11207;59.512;18.050;2022-10-31T05:00:55;7.40;;;5.27;;
22080;SDS011;11207;59.512;18.050;2022-10-31T05:03:21;12.07;;;6.20;;
22080;SDS011;11207;59.512;18.050;2022-10-31T05:05:46;6.80;;;5.20;;
22080;SDS011;11207;59.512;18.050;2022-10-31T05:08:12;14.77;;;6.07;;
22080;SDS011;11207;59.512;18.050;2022-10-31T05:10:39;8.63;;;5.03;;
22080;SDS011;11207;59.512;18.050;2022-10-31T05:13:04;8.63;;;6.33;;
22080;SDS011;11207;59.512;18.050;2022-10-31T05:15:30;12.07;;;6.13;;
22080;SDS011;11207;59.512;18.050;2022-10-31T05:17:56;7.23;;;5.10;;
22080;SDS011;11207;59.512;18.050;2022-10-31T05:20:23;10.73;;;5.10;;
22080;SDS011;11207;59.512;18.050;2022-10-31T05:22:52;10.80;;;5.93;;
22080;SDS011;11207;59.512;18.050;2022-10-31T05:25:20;15.70;;;6.50;;
22080;SDS011;11207;59.512;18.050;2022-10-31T05:27:48;9.17;;;6.20;;
22080;SDS011;11207;59.512;18.050;2022-10-31T05:30:16;12.00;;;6.63;;
22080;SDS011;11207;59.512;18.050;2022-10-31T05:32:48;12.10;;;6.33;;
22080;SDS011;11207;59.512;18.050;2022-10-31T05:35:15;11.87;;;6.37;;
22080;SDS011;11207;59.512;18.050;2022-10-31T05:37:43;14.43;;;6.53;;
22080;SDS011;11207;59.512;18.050;2022-10-31T05:40:10;15.90;;;7.20;;
22080;SDS011;11207;59.512;18.050;2022-10-31T05:42:40;16.13;;;7.60;;
22080;SDS011;11207;59.512;18.050;2022-10-31T05:45:07;14.13;;;6.90;;
22080;SDS011;11207;59.512;18.050;2022-10-31T05:47:34;15.53;;;6.60;;
22080;SDS011;11207;59.512;18.050;2022-10-31T05:50:00;16.23;;;7.33;;
22080;SDS011;11207;59.512;18.050;2022-10-31T05:52:25;46.33;;;9.77;;
22080;SDS011;11207;59.512;18.050;2022-10-31T05:54:51;9.33;;;6.20;;
22080;SDS011;11207;59.512;18.050;2022-10-31T05:57:17;11.20;;;7.20;;
22080;SDS011;11207;59.512;18.050;2022-10-31T05:59:42;8.97;;;6.57;;
22080;SDS011;11207;59.512;18.050;2022-10-31T06:02:08;10.50;;;6.30;;
22080;SDS011;11207;59.512;18.050;2022-10-31T06:04:34;9.40;;;6.40;;
22080;SDS011;11207;59.512;18.050;2022-10-31T06:06:59;10.70;;;6.43;;
22080;SDS011;11207;59.512;18.050;2022-10-31T06:09:25;10.50;;;6.40;;
22080;SDS011;11207;59.512;18.050;2022-10-31T06:11:51;7.53;;;6.17;;
22080;SDS011;11207;59.512;18.050;2022-10-31T06:14:16;8.77;;;6.10;;
22080;SDS011;11207;59.512;18.050;2022-10-31T06:16:42;9.63;;;6.20;;
22080;SDS011;11207;59.512;18.050;2022-10-31T06:19:07;7.93;;;6.23;;
22080;SDS011;11207;59.512;18.050;2022-10-31T06:21:33;10.23;;;6.93;;
22080;SDS011;11207;59.512;18.050;2022-10-31T06:23:59;8.10;;;5.77;;
22080;SDS011;11207;59.512;18.050;2022-10-31T06:26:24;9.20;;;6.90;;
22080;SDS011;11207;59.512;18.050;2022-10-31T06:28:50;8.70;;;6.60;;
22080;SDS011;11207;59.512;18.050;2022-10-31T06:31:15;10.37;;;6.70;;
22080;SDS011;11207;59.512;18.050;2022-10-31T06:33:41;7.97;;;5.97;;
22080;SDS011;11207;59.512;18.050;2022-10-31T06:36:08;11.07;;;6.37;;
22080;SDS011;11207;59.512;18.050;2022-10-31T06:38:34;8.17;;;6.30;;
22080;SDS011;11207;59.512;18.050;2022-10-31T06:41:03;9.30;;;6.37;;
22080;SDS011;11207;59.512;18.050;2022-10-31T06:43:30;8.37;;;6.03;;
22080;SDS011;11207;59.512;18.050;2022-10-31T06:45:55;9.20;;;6.60;;
22080;SDS011;11207;59.512;18.050;2022-10-31T06:48:21;13.20;;;9.00;;
22080;SDS011;11207;59.512;18.050;2022-10-31T06:50:47;8.27;;;6.80;;
22080;SDS011;11207;59.512;18.050;2022-10-31T06:53:13;7.00;;;5.90;;
22080;SDS011;11207;59.512;18.050;2022-10-31T06:55:39;7.67;;;6.30;;
22080;SDS011;11207;59.512;18.050;2022-10-31T06:58:05;8.27;;;6.20;;
22080;SDS011;11207;59.512;18.050;2022-10-31T07:00:31;11.07;;;7.00;;
22080;SDS011;11207;59.512;18.050;2022-10-31T07:02:59;7.10;;;5.77;;
22080;SDS011;11207;59.512;18.050;2022-10-31T07:05:27;9.77;;;7.17;;
22080;SDS011;11207;59.512;18.050;2022-10-31T07:07:57;9.33;;;6.10;;
22080;SDS011;11207;59.512;18.050;2022-10-31T07:10:25;11.93;;;7.53;;
22080;SDS011;11207;59.512;18.050;2022-10-31T07:12:58;10.33;;;7.17;;
22080;SDS011;11207;59.512;18.050;2022-10-31T07:15:28;9.67;;;6.63;;
22080;SDS011;11207;59.512;18.050;2022-10-31T07:18:00;8.30;;;6.73;;
22080;SDS011;11207;59.512;18.050;2022-10-31T07:20:28;9.33;;;7.17;;
22080;SDS011;11207;59.512;18.050;2022-10-31T07:22:54;11.03;;;7.70;;
22080;SDS011;11207;59.512;18.050;2022-10-31T07:25:20;8.90;;;6.43;;
22080;SDS011;11207;59.512;18.050;2022-10-31T07:27:46;11.13;;;7.77;;
22080;SDS011;11207;59.512;18.050;2022-10-31T07:30:12;22.03;;;8.63;;
22080;SDS011;11207;59.512;18.050;2022-10-31T07:32:39;13.80;;;8.20;;
22080;SDS011;11207;59.512;18.050;2022-10-31T07:35:09;9.83;;;6.97;;
22080;SDS011;11207;59.512;18.050;2022-10-31T07:37:36;10.50;;;7.07;;
22080;SDS011;11207;59.512;18.050;2022-10-31T07:40:03;11.13;;;7.43;;
22080;SDS011;11207;59.512;18.050;2022-10-31T07:42:34;11.17;;;6.93;;
22080;SDS011;11207;59.512;18.050;2022-10-31T07:45:01;10.03;;;6.80;;
22080;SDS011;11207;59.512;18.050;2022-10-31T07:47:26;10.73;;;6.90;;
22080;SDS011;11207;59.512;18.050;2022-10-31T07:49:52;9.47;;;6.97;;
22080;SDS011;11207;59.512;18.050;2022-10-31T07:52:17;11.43;;;7.23;;
22080;SDS011;11207;59.512;18.050;2022-10-31T07:54:43;9.77;;;6.73;;
22080;SDS011;11207;59.512;18.050;2022-10-31T07:57:09;11.23;;;7.43;;
22080;SDS011;11207;59.512;18.050;2022-10-31T07:59:34;12.17;;;7.00;;
22080;SDS011;11207;59.512;18.050;2022-10-31T08:02:00;10.40;;;7.60;;
22080;SDS011;11207;59.512;18.050;2022-10-31T08:04:25;11.43;;;7.37;;
22080;SDS011;11207;59.512;18.050;2022-10-31T08:06:51;10.03;;;7.07;;
22080;SDS011;11207;59.512;18.050;2022-10-31T08:09:16;10.60;;;7.10;;
22080;SDS011;11207;59.512;18.050;2022-10-31T08:11:42;11.83;;;7.83;;
22080;SDS011;11207;59.512;18.050;2022-10-31T08:14:08;9.43;;;6.93;;
22080;SDS011;11207;59.512;18.050;2022-10-31T08:16:33;11.90;;;7.57;;
22080;SDS011;11207;59.512;18.050;2022-10-31T08:18:59;11.60;;;7.57;;
22080;SDS011;11207;59.512;18.050;2022-10-31T08:21:25;11.37;;;7.50;;
22080;SDS011;11207;59.512;18.050;2022-10-31T08:23:51;10.00;;;6.90;;
22080;SDS011;11207;59.512;18.050;2022-10-31T08:26:16;16.77;;;8.80;;
22080;SDS011;11207;59.512;18.050;2022-10-31T08:28:42;13.10;;;8.10;;
22080;SDS011;11207;59.512;18.050;2022-10-31T08:31:07;11.70;;;7.70;;
22080;SDS011;11207;59.512;18.050;2022-10-31T08:33:34;12.53;;;7.60;;
22080;SDS011;11207;59.512;18.050;2022-10-31T08:36:00;13.23;;;7.80;;
22080;SDS011;11207;59.512;18.050;2022-10-31T08:38:26;16.10;;;8.30;;
22080;SDS011;11207;59.512;18.050;2022-10-31T08:40:51;11.97;;;7.87;;
22080;SDS011;11207;59.512;18.050;2022-10-31T08:43:17;15.43;;;8.10;;
22080;SDS011;11207;59.512;18.050;2022-10-31T08:45:44;14.43;;;8.03;;
22080;SDS011;11207;59.512;18.050;2022-10-31T08:48:13;15.03;;;8.43;;
22080;SDS011;11207;59.512;18.050;2022-10-31T08:50:41;14.87;;;8.60;;
22080;SDS011;11207;59.512;18.050;2022-10-31T08:53:12;11.47;;;7.73;;
22080;SDS011;11207;59.512;18.050;2022-10-31T08:55:39;20.00;;;9.53;;
22080;SDS011;11207;59.512;18.050;2022-10-31T08:58:07;16.47;;;8.77;;
22080;SDS011;11207;59.512;18.050;2022-10-31T09:00:35;15.40;;;8.20;;
22080;SDS011;11207;59.512;18.050;2022-10-31T09:03:04;19.83;;;9.50;;
22080;SDS011;11207;59.512;18.050;2022-10-31T09:05:32;18.50;;;9.00;;
22080;SDS011;11207;59.512;18.050;2022-10-31T09:07:58;18.40;;;9.07;;
22080;SDS011;11207;59.512;18.050;2022-10-31T09:10:25;19.27;;;10.07;;
22080;SDS011;11207;59.512;18.050;2022-10-31T09:13:02;13.40;;;8.50;;
22080;SDS011;11207;59.512;18.050;2022-10-31T09:15:37;14.83;;;8.67;;
22080;SDS011;11207;59.512;18.050;2022-10-31T09:18:04;15.53;;;7.77;;
22080;SDS011;11207;59.512;18.050;2022-10-31T09:20:31;16.73;;;9.20;;
22080;SDS011;11207;59.512;18.050;2022-10-31T09:22:58;14.73;;;7.70;;
22080;SDS011;11207;59.512;18.050;2022-10-31T09:25:32;17.93;;;8.83;;
22080;SDS011;11207;59.512;18.050;2022-10-31T09:27:59;15.37;;;8.60;;
22080;SDS011;11207;59.512;18.050;2022-10-31T09:30:26;15.30;;;8.17;;
22080;SDS011;11207;59.512;18.050;2022-10-31T09:32:57;19.60;;;8.77;;
22080;SDS011;11207;59.512;18.050;2022-10-31T09:35:25;17.33;;;9.70;;
22080;SDS011;11207;59.512;18.050;2022-10-31T09:38:00;14.70;;;8.60;;
22080;SDS011;11207;59.512;18.050;2022-10-31T09:40:37;15.77;;;8.60;;
22080;SDS011;11207;59.512;18.050;2022-10-31T09:51:32;16.37;;;9.10;;
22080;SDS011;11207;59.512;18.050;2022-10-31T09:54:08;14.10;;;9.20;;
22080;SDS011;11207;59.512;18.050;2022-10-31T09:56:37;23.67;;;9.77;;
22080;SDS011;11207;59.512;18.050;2022-10-31T09:59:04;22.40;;;10.67;;
22080;SDS011;11207;59.512;18.050;2022-10-31T10:01:49;14.77;;;9.00;;
22080;SDS011;11207;59.512;18.050;2022-10-31T10:07:35;14.37;;;8.73;;
22080;SDS011;11207;59.512;18.050;2022-10-31T10:09:55;17.57;;;9.40;;
22080;SDS011;11207;59.512;18.050;2022-10-31T10:15:04;17.27;;;8.77;;
22080;SDS011;11207;59.512;18.050;2022-10-31T10:21:06;14.20;;;8.97;;
22080;SDS011;11207;59.512;18.050;2022-10-31T10:23:38;11.87;;;7.97;;
22080;SDS011;11207;59.512;18.050;2022-10-31T10:26:22;17.03;;;9.00;;
22080;SDS011;11207;59.512;18.050;2022-10-31T10:31:44;15.33;;;8.60;;
22080;SDS011;11207;59.512;18.050;2022-10-31T10:34:18;14.43;;;8.93;;
22080;SDS011;11207;59.512;18.050;2022-10-31T10:39:41;12.67;;;8.37;;
22080;SDS011;11207;59.512;18.050;2022-10-31T10:42:11;12.93;;;8.57;;
22080;SDS011;11207;59.512;18.050;2022-10-31T10:45:15;15.93;;;9.17;;
22080;SDS011;11207;59.512;18.050;2022-10-31T10:48:13;13.93;;;9.03;;
22080;SDS011;11207;59.512;18.050;2022-10-31T10:50:44;15.07;;;9.43;;
22080;SDS011;11207;59.512;18.050;2022-10-31T10:59:04;11.90;;;7.87;;
22080;SDS011;11207;59.512;18.050;2022-10-31T11:01:33;10.90;;;7.43;;
22080;SDS011;11207;59.512;18.050;2022-10-31T11:03:59;12.23;;;7.37;;
22080;SDS011;11207;59.512;18.050;2022-10-31T11:06:27;13.70;;;6.97;;
22080;SDS011;11207;59.512;18.050;2022-10-31T11:08:53;11.37;;;8.17;;
22080;SDS011;11207;59.512;18.050;2022-10-31T11:13:51;9.87;;;6.90;;
22080;SDS011;11207;59.512;18.050;2022-10-31T11:18:54;8.33;;;6.30;;
22080;SDS011;11207;59.512;18.050;2022-10-31T11:21:33;9.03;;;7.20;;
22080;SDS011;11207;59.512;18.050;2022-10-31T11:26:34;11.53;;;6.90;;
22080;SDS011;11207;59.512;18.050;2022-10-31T11:29:03;13.33;;;8.97;;
22080;SDS011;11207;59.512;18.050;2022-10-31T11:31:30;15.00;;;7.50;;
22080;SDS011;11207;59.512;18.050;2022-10-31T11:34:02;10.47;;;6.77;;
22080;SDS011;11207;59.512;18.050;2022-10-31T11:36:30;8.77;;;6.47;;
22080;SDS011;11207;59.512;18.050;2022-10-31T11:38:59;10.30;;;6.80;;
22080;SDS011;11207;59.512;18.050;2022-10-31T11:41:28;8.53;;;5.57;;
22080;SDS011;11207;59.512;18.050;2022-10-31T11:43:58;13.57;;;8.33;;
22080;SDS011;11207;59.512;18.050;2022-10-31T11:46:30;12.20;;;8.67;;
22080;SDS011;11207;59.512;18.050;2022-10-31T11:49:00;10.27;;;6.67;;
22080;SDS011;11207;59.512;18.050;2022-10-31T11:51:28;11.10;;;6.67;;
22080;SDS011;11207;59.512;18.050;2022-10-31T11:53:59;10.73;;;6.07;;
22080;SDS011;11207;59.512;18.050;2022-10-31T11:56:27;10.73;;;6.30;;
22080;SDS011;11207;59.512;18.050;2022-10-31T11:59:04;10.17;;;6.80;;
22080;SDS011;11207;59.512;18.050;2022-10-31T12:01:40;12.93;;;7.13;;
22080;SDS011;11207;59.512;18.050;2022-10-31T12:04:12;11.70;;;6.37;;
22080;SDS011;11207;59.512;18.050;2022-10-31T12:06:39;8.13;;;6.40;;
22080;SDS011;11207;59.512;18.050;2022-10-31T12:09:18;12.37;;;6.97;;
22080;SDS011;11207;59.512;18.050;2022-10-31T12:17:16;11.43;;;5.70;;
22080;SDS011;11207;59.512;18.050;2022-10-31T12:19:59;10.27;;;6.33;;
22080;SDS011;11207;59.512;18.050;2022-10-31T12:22:52;9.07;;;6.10;;
22080;SDS011;11207;59.512;18.050;2022-10-31T12:30:58;7.87;;;6.17;;
22080;SDS011;11207;59.512;18.050;2022-10-31T12:41:46;9.43;;;6.13;;
22080;SDS011;11207;59.512;18.050;2022-10-31T12:49:42;8.17;;;6.07;;
22080;SDS011;11207;59.512;18.050;2022-10-31T12:52:24;7.70;;;5.80;;
22080;SDS011;11207;59.512;18.050;2022-10-31T12:55:20;9.13;;;5.80;;
22080;SDS011;11207;59.512;18.050;2022-10-31T12:58:40;10.33;;;5.93;;
22080;SDS011;11207;59.512;18.050;2022-10-31T13:01:02;9.03;;;5.53;;
22080;SDS011;11207;59.512;18.050;2022-10-31T13:03:34;9.83;;;5.90;;
22080;SDS011;11207;59.512;18.050;2022-10-31T13:06:22;9.87;;;6.37;;
22080;SDS011;11207;59.512;18.050;2022-10-31T13:09:08;11.33;;;6.10;;
22080;SDS011;11207;59.512;18.050;2022-10-31T13:11:55;8.57;;;5.43;;
22080;SDS011;11207;59.512;18.050;2022-10-31T13:17:03;10.27;;;5.90;;
22080;SDS011;11207;59.512;18.050;2022-10-31T13:19:38;9.00;;;5.57;;
22080;SDS011;11207;59.512;18.050;2022-10-31T13:22:08;8.63;;;5.60;;
22080;SDS011;11207;59.512;18.050;2022-10-31T13:24:47;8.57;;;5.27;;
22080;SDS011;11207;59.512;18.050;2022-10-31T13:27:23;9.93;;;5.53;;
22080;SDS011;11207;59.512;18.050;2022-10-31T13:30:01;13.00;;;5.93;;
22080;SDS011;11207;59.512;18.050;2022-10-31T13:32:38;9.70;;;5.90;;
22080;SDS011;11207;59.512;18.050;2022-10-31T13:35:18;6.87;;;5.07;;
22080;SDS011;11207;59.512;18.050;2022-10-31T13:38:38;7.17;;;5.07;;
22080;SDS011;11207;59.512;18.050;2022-10-31T13:43:40;7.60;;;4.83;;
22080;SDS011;11207;59.512;18.050;2022-10-31T13:54:39;8.67;;;4.07;;
22080;SDS011;11207;59.512;18.050;2022-10-31T13:57:07;8.73;;;4.53;;
22080;SDS011;11207;59.512;18.050;2022-10-31T13:59:54;9.97;;;4.67;;
22080;SDS011;11207;59.512;18.050;2022-10-31T14:02:27;12.17;;;5.30;;
22080;SDS011;11207;59.512;18.050;2022-10-31T14:07:51;7.57;;;4.27;;
22080;SDS011;11207;59.512;18.050;2022-10-31T14:10:31;11.80;;;5.57;;
22080;SDS011;11207;59.512;18.050;2022-10-31T14:15:55;9.80;;;4.83;;
22080;SDS011;11207;59.512;18.050;2022-10-31T14:18:23;8.03;;;4.53;;
22080;SDS011;11207;59.512;18.050;2022-10-31T14:20:53;8.63;;;4.83;;
22080;SDS011;11207;59.512;18.050;2022-10-31T14:29:00;7.13;;;4.30;;
22080;SDS011;11207;59.512;18.050;2022-10-31T14:31:28;6.43;;;4.27;;
22080;SDS011;11207;59.512;18.050;2022-10-31T14:34:06;5.97;;;4.43;;
22080;SDS011;11207;59.512;18.050;2022-10-31T14:39:44;9.67;;;4.80;;
22080;SDS011;11207;59.512;18.050;2022-10-31T14:50:47;10.00;;;4.17;;
22080;SDS011;11207;59.512;18.050;2022-10-31T14:53:04;10.00;;;4.30;;
22080;SDS011;11207;59.512;18.050;2022-10-31T14:55:31;6.50;;;4.70;;
22080;SDS011;11207;59.512;18.050;2022-10-31T14:58:01;5.93;;;4.33;;
22080;SDS011;11207;59.512;18.050;2022-10-31T15:00:29;7.63;;;4.80;;
22080;SDS011;11207;59.512;18.050;2022-10-31T15:03:17;7.93;;;4.30;;
22080;SDS011;11207;59.512;18.050;2022-10-31T15:05:51;10.17;;;4.80;;
22080;SDS011;11207;59.512;18.050;2022-10-31T15:08:31;9.07;;;4.80;;
22080;SDS011;11207;59.512;18.050;2022-10-31T15:10:58;6.83;;;4.33;;
22080;SDS011;11207;59.512;18.050;2022-10-31T15:13:27;8.80;;;4.43;;
22080;SDS011;11207;59.512;18.050;2022-10-31T15:15:53;7.30;;;4.17;;
22080;SDS011;11207;59.512;18.050;2022-10-31T15:18:25;5.50;;;3.80;;
22080;SDS011;11207;59.512;18.050;2022-10-31T15:20:53;6.40;;;4.57;;
22080;SDS011;11207;59.512;18.050;2022-10-31T15:23:29;8.63;;;4.50;;
22080;SDS011;11207;59.512;18.050;2022-10-31T15:26:03;8.57;;;4.63;;
22080;SDS011;11207;59.512;18.050;2022-10-31T15:28:30;7.13;;;4.37;;
22080;SDS011;11207;59.512;18.050;2022-10-31T15:30:59;9.33;;;4.90;;
22080;SDS011;11207;59.512;18.050;2022-10-31T15:33:30;7.60;;;4.47;;
22080;SDS011;11207;59.512;18.050;2022-10-31T15:36:03;5.33;;;4.03;;
22080;SDS011;11207;59.512;18.050;2022-10-31T15:38:30;9.87;;;5.17;;
22080;SDS011;11207;59.512;18.050;2022-10-31T15:40:59;6.70;;;4.77;;
22080;SDS011;11207;59.512;18.050;2022-10-31T15:43:32;8.90;;;5.17;;
22080;SDS011;11207;59.512;18.050;2022-10-31T15:46:02;7.50;;;4.47;;
22080;SDS011;11207;59.512;18.050;2022-10-31T15:48:29;8.83;;;4.90;;
22080;SDS011;11207;59.512;18.050;2022-10-31T15:50:57;8.53;;;5.00;;
22080;SDS011;11207;59.512;18.050;2022-10-31T15:53:27;10.47;;;5.80;;
22080;SDS011;11207;59.512;18.050;2022-10-31T15:56:19;8.13;;;4.90;;
22080;SDS011;11207;59.512;18.050;2022-10-31T15:58:50;8.37;;;5.47;;
22080;SDS011;11207;59.512;18.050;2022-10-31T16:01:21;9.00;;;5.30;;
22080;SDS011;11207;59.512;18.050;2022-10-31T16:03:59;9.80;;;5.40;;
22080;SDS011;11207;59.512;18.050;2022-10-31T16:06:37;9.00;;;5.07;;
22080;SDS011;11207;59.512;18.050;2022-10-31T16:09:04;9.23;;;5.00;;
22080;SDS011;11207;59.512;18.050;2022-10-31T16:11:46;7.73;;;4.70;;
22080;SDS011;11207;59.512;18.050;2022-10-31T16:16:42;9.87;;;4.80;;
22080;SDS011;11207;59.512;18.050;2022-10-31T16:19:15;10.27;;;4.90;;
22080;SDS011;11207;59.512;18.050;2022-10-31T16:21:47;12.40;;;6.63;;
22080;SDS011;11207;59.512;18.050;2022-10-31T16:27:03;10.47;;;7.53;;
22080;SDS011;11207;59.512;18.050;2022-10-31T16:29:44;10.60;;;6.57;;
22080;SDS011;11207;59.512;18.050;2022-10-31T16:37:33;10.13;;;5.60;;
22080;SDS011;11207;59.512;18.050;2022-10-31T16:39:59;7.27;;;5.03;;
22080;SDS011;11207;59.512;18.050;2022-10-31T16:42:24;8.10;;;5.43;;
22080;SDS011;11207;59.512;18.050;2022-10-31T16:44:51;6.63;;;5.23;;
22080;SDS011;11207;59.512;18.050;2022-10-31T16:47:17;9.20;;;4.87;;
22080;SDS011;11207;59.512;18.050;2022-10-31T16:49:43;8.50;;;5.27;;
22080;SDS011;11207;59.512;18.050;2022-10-31T16:52:13;8.80;;;5.20;;
22080;SDS011;11207;59.512;18.050;2022-10-31T16:54:38;6.77;;;4.80;;
22080;SDS011;11207;59.512;18.050;2022-10-31T16:57:04;9.93;;;4.73;;
22080;SDS011;11207;59.512;18.050;2022-10-31T16:59:31;6.80;;;4.50;;
22080;SDS011;11207;59.512;18.050;2022-10-31T17:01:58;7.00;;;5.10;;
22080;SDS011;11207;59.512;18.050;2022-10-31T17:04:24;11.67;;;5.97;;
22080;SDS011;11207;59.512;18.050;2022-10-31T17:06:50;8.57;;;5.67;;
22080;SDS011;11207;59.512;18.050;2022-10-31T17:09:16;7.77;;;5.37;;